Time;durP1;ratioP1;P1;durP2;ratioP2;P2;SDS_P1;SDS_P2;PMS_P1;PMS_P2;Temp;Humidity;BMP_temperature;BMP_pressure;BME280_temperature;BME280_humidity;BME280_pressure;Samples;Min_cycle;Max_cycle;Signal;HPM_P1;HPM_P2
2022/05/07 00:00:31;;;;;;;9.73;7.53;;;16.50;99.90;;;;;;5085370;28;20405;-89
2022/05/07 00:02:56;;;;;;;11.90;8.67;;;16.50;99.90;;;;;;5084102;28;20199;-91
2022/05/07 00:05:22;;;;;;;11.40;7.03;;;16.50;99.90;;;;;;5088361;28;20183;-90
2022/05/07 00:07:48;;;;;;;10.67;7.63;;;16.40;99.90;;;;;;5087939;28;20234;-91
2022/05/07 00:10:14;;;;;;;11.30;7.83;;;16.40;99.90;;;;;;5104911;28;20421;-92
2022/05/07 00:12:41;;;;;;;13.50;7.97;;;16.40;99.90;;;;;;5102152;28;20200;-90
2022/05/07 00:15:07;;;;;;;12.73;8.80;;;16.30;99.90;;;;;;5098521;28;20453;-90
2022/05/07 00:20:18;;;;;;;11.70;8.37;;;16.30;99.90;;;;;;5116328;28;20383;-91
2022/05/07 00:22:44;;;;;;;11.70;9.77;;;16.20;99.90;;;;;;5097653;28;20531;-92
2022/05/07 00:25:10;;;;;;;11.63;8.60;;;16.20;99.90;;;;;;5116398;28;20411;-91
2022/05/07 00:27:36;;;;;;;9.10;7.63;;;16.20;99.90;;;;;;5098580;28;20463;-92
2022/05/07 00:30:03;;;;;;;12.90;8.30;;;16.20;99.90;;;;;;5118193;28;20559;-90
2022/05/07 00:32:29;;;;;;;13.40;8.90;;;16.20;99.90;;;;;;5117909;28;20463;-92
2022/05/07 00:34:55;;;;;;;21.97;8.90;;;16.10;99.90;;;;;;5099203;28;20454;-90
2022/05/07 00:37:20;;;;;;;13.47;8.53;;;16.10;99.90;;;;;;5098827;28;20207;-90
2022/05/07 00:39:48;;;;;;;13.37;8.13;;;16.10;99.90;;;;;;5116932;28;20203;-90
2022/05/07 00:42:15;;;;;;;14.47;8.80;;;16.10;99.90;;;;;;5097704;28;20208;-91
2022/05/07 00:44:41;;;;;;;13.63;8.93;;;16.10;99.90;;;;;;5097813;28;20400;-91
2022/05/07 00:47:15;;;;;;;12.87;8.10;;;16.00;99.90;;;;;;5099057;28;20535;-92
2022/05/07 00:49:43;;;;;;;13.50;8.20;;;16.00;99.90;;;;;;5120236;28;20392;-91
2022/05/07 00:52:09;;;;;;;13.50;8.63;;;16.00;99.90;;;;;;5098198;28;20448;-92
2022/05/07 00:54:35;;;;;;;15.97;7.80;;;16.00;99.90;;;;;;5117018;28;20412;-90
2022/05/07 00:57:02;;;;;;;10.80;7.90;;;15.90;99.90;;;;;;5098791;28;20460;-90
2022/05/07 00:59:28;;;;;;;11.23;7.40;;;15.90;99.90;;;;;;5099139;28;20468;-92
2022/05/07 01:01:53;;;;;;;10.90;7.40;;;15.90;99.90;;;;;;5117922;28;20435;-91
2022/05/07 01:04:19;;;;;;;10.80;8.73;;;15.90;99.90;;;;;;5099907;28;20487;-91
2022/05/07 01:06:45;;;;;;;12.20;8.60;;;15.90;99.90;;;;;;5101571;28;20211;-91
2022/05/07 01:09:11;;;;;;;11.10;7.33;;;15.90;99.90;;;;;;5097674;28;20408;-91
2022/05/07 01:11:40;;;;;;;11.80;7.60;;;15.90;99.90;;;;;;5041843;28;20471;-91
2022/05/07 01:14:06;;;;;;;14.30;8.20;;;15.90;99.90;;;;;;5016565;28;20461;-91
2022/05/07 01:16:31;;;;;;;11.77;8.67;;;15.80;99.90;;;;;;5016019;28;20828;-91
2022/05/07 01:18:57;;;;;;;13.00;8.80;;;15.80;99.90;;;;;;5016022;28;20464;-90
2022/05/07 01:21:23;;;;;;;12.57;8.43;;;15.80;99.90;;;;;;5017501;28;20240;-92
2022/05/07 01:23:49;;;;;;;11.13;8.17;;;15.80;99.90;;;;;;5014942;28;20174;-90
2022/05/07 01:26:17;;;;;;;12.60;9.17;;;15.80;99.90;;;;;;5020214;28;20426;-92
2022/05/07 01:28:44;;;;;;;10.37;7.73;;;15.80;99.90;;;;;;5036713;28;20726;-91
2022/05/07 01:31:10;;;;;;;12.90;8.00;;;15.70;99.90;;;;;;5036584;28;20419;-92
2022/05/07 01:33:36;;;;;;;15.23;8.27;;;15.70;99.90;;;;;;5035155;28;20438;-92
2022/05/07 01:36:03;;;;;;;12.30;8.80;;;15.70;99.90;;;;;;5036551;28;20403;-91
2022/05/07 01:38:31;;;;;;;9.87;7.53;;;15.70;99.90;;;;;;5053926;28;20485;-92
2022/05/07 01:40:57;;;;;;;15.83;8.30;;;15.70;99.90;;;;;;5036657;28;20502;-91
2022/05/07 01:43:23;;;;;;;15.80;8.67;;;15.70;99.90;;;;;;5054389;28;20483;-91
2022/05/07 01:45:49;;;;;;;9.40;7.30;;;15.70;99.90;;;;;;5053449;28;20411;-90
2022/05/07 01:48:14;;;;;;;8.00;6.40;;;15.70;99.90;;;;;;5035826;28;20468;-91
2022/05/07 01:50:42;;;;;;;8.90;7.07;;;15.70;99.90;;;;;;5051975;28;20406;-90
2022/05/07 01:53:09;;;;;;;9.07;7.00;;;15.70;99.90;;;;;;5038383;28;20205;-91
2022/05/07 01:55:36;;;;;;;8.00;6.27;;;15.80;99.90;;;;;;5047312;28;20417;-91
2022/05/07 01:58:02;;;;;;;10.13;6.73;;;15.80;99.90;;;;;;5055771;28;20467;-91
2022/05/07 02:00:30;;;;;;;6.60;5.83;;;15.80;99.90;;;;;;5034254;28;20430;-91
2022/05/07 02:02:57;;;;;;;7.47;5.83;;;15.80;99.90;;;;;;5034559;28;20486;-92
2022/05/07 02:05:24;;;;;;;10.73;6.40;;;15.80;99.90;;;;;;5036380;28;20961;-91
2022/05/07 02:07:50;;;;;;;8.43;6.47;;;15.90;99.90;;;;;;5037189;28;20574;-92
2022/05/07 02:10:15;;;;;;;8.97;6.40;;;15.90;99.90;;;;;;5037421;28;20427;-91
2022/05/07 02:12:41;;;;;;;7.03;5.93;;;15.90;99.90;;;;;;5039054;28;20198;-91
2022/05/07 02:15:07;;;;;;;12.23;7.50;;;16.00;99.90;;;;;;5037797;28;20170;-90
2022/05/07 02:17:33;;;;;;;7.17;5.80;;;16.00;99.90;;;;;;5055905;28;20213;-92
2022/05/07 02:19:58;;;;;;;7.40;5.50;;;16.00;99.90;;;;;;5054672;28;20590;-89
2022/05/07 02:22:24;;;;;;;6.97;5.90;;;16.00;99.90;;;;;;5055548;28;20526;-91
2022/05/07 02:24:51;;;;;;;6.70;5.67;;;15.90;99.90;;;;;;5037515;28;20582;-90
2022/05/07 02:27:17;;;;;;;11.33;6.80;;;15.90;99.90;;;;;;5031339;28;20199;-92
2022/05/07 02:29:43;;;;;;;8.73;6.60;;;16.00;99.90;;;;;;5019701;28;20834;-91
2022/05/07 02:32:13;;;;;;;7.00;5.97;;;16.00;99.90;;;;;;5015537;28;20551;-91
2022/05/07 02:34:39;;;;;;;9.00;5.67;;;16.00;99.90;;;;;;5014562;28;20178;-92
2022/05/07 02:37:05;;;;;;;6.60;5.37;;;16.00;99.90;;;;;;5014808;28;20531;-91
2022/05/07 02:39:32;;;;;;;7.40;5.40;;;16.00;99.90;;;;;;5014624;28;20514;-91
2022/05/07 02:44:43;;;;;;;9.10;5.30;;;16.10;99.90;;;;;;5017770;28;20396;-92
2022/05/07 02:47:09;;;;;;;8.07;5.57;;;16.20;99.90;;;;;;5017130;28;20453;-92
2022/05/07 02:49:34;;;;;;;8.73;5.30;;;16.20;99.90;;;;;;5016697;28;20404;-90
2022/05/07 02:52:01;;;;;;;7.30;6.00;;;16.20;99.90;;;;;;5014418;28;20203;-92
2022/05/07 02:54:27;;;;;;;8.90;5.77;;;16.20;99.90;;;;;;5032391;28;20193;-90
2022/05/07 02:56:54;;;;;;;7.90;6.00;;;16.20;99.90;;;;;;5014983;28;20456;-91
2022/05/07 02:59:19;;;;;;;8.67;5.57;;;16.20;99.90;;;;;;5015032;28;20460;-90
2022/05/07 03:01:45;;;;;;;7.80;5.50;;;16.20;99.90;;;;;;5014847;28;20502;-91
2022/05/07 03:04:11;;;;;;;7.50;5.23;;;16.20;99.90;;;;;;5018906;28;20203;-88
2022/05/07 03:06:37;;;;;;;6.77;5.00;;;16.20;99.90;;;;;;5015651;28;20243;-91
2022/05/07 03:09:04;;;;;;;6.30;5.13;;;16.20;99.90;;;;;;5022285;28;20172;-90
2022/05/07 03:11:33;;;;;;;8.90;6.43;;;16.20;99.90;;;;;;5012830;28;20468;-92
2022/05/07 03:14:00;;;;;;;6.80;6.10;;;16.20;99.90;;;;;;5013815;28;20427;-91
2022/05/07 03:16:26;;;;;;;7.70;5.50;;;16.20;99.90;;;;;;5016093;28;20840;-91
2022/05/07 03:18:52;;;;;;;8.87;6.67;;;16.20;99.90;;;;;;5016231;28;20533;-90
2022/05/07 03:21:17;;;;;;;9.07;6.20;;;16.20;99.90;;;;;;5013966;28;20925;-89
2022/05/07 03:23:44;;;;;;;7.83;5.87;;;16.20;99.90;;;;;;5014241;28;20203;-91
2022/05/07 03:26:11;;;;;;;8.13;6.67;;;16.20;99.90;;;;;;5021214;28;20264;-91
2022/05/07 03:28:37;;;;;;;11.03;6.83;;;16.20;99.90;;;;;;5037125;28;20446;-92
2022/05/07 03:31:03;;;;;;;7.83;5.83;;;16.20;99.90;;;;;;5038161;28;20418;-91
2022/05/07 03:33:29;;;;;;;7.50;5.30;;;16.20;99.90;;;;;;5037505;28;20466;-92
2022/05/07 03:35:55;;;;;;;6.83;5.70;;;16.10;99.90;;;;;;5054588;28;20406;-91
2022/05/07 03:38:21;;;;;;;7.60;5.80;;;16.10;99.90;;;;;;5054774;28;20217;-90
2022/05/07 03:40:46;;;;;;;10.60;6.73;;;16.10;99.90;;;;;;5055172;28;20793;-91
2022/05/07 03:43:12;;;;;;;8.20;5.73;;;16.10;99.90;;;;;;5037117;28;20458;-92
2022/05/07 03:45:38;;;;;;;6.40;5.77;;;16.10;99.90;;;;;;5037233;28;20182;-90
2022/05/07 03:48:04;;;;;;;7.73;6.23;;;16.10;99.90;;;;;;5056483;28;20204;-92
2022/05/07 03:50:30;;;;;;;9.80;6.47;;;16.10;99.90;;;;;;5038166;28;20178;-89
2022/05/07 03:55:43;;;;;;;7.43;5.50;;;16.10;99.90;;;;;;5065455;28;20391;-91
2022/05/07 03:58:15;;;;;;;9.53;5.87;;;16.10;99.90;;;;;;5054018;28;20479;-91
2022/05/07 04:00:42;;;;;;;7.83;5.80;;;16.10;99.90;;;;;;5045935;28;20809;-92
2022/05/07 04:03:08;;;;;;;9.50;6.20;;;16.20;99.90;;;;;;5038230;28;20462;-91
2022/05/07 04:05:34;;;;;;;9.30;5.67;;;16.20;99.90;;;;;;5035541;28;20422;-90
2022/05/07 04:08:00;;;;;;;8.70;5.70;;;16.20;99.90;;;;;;5035204;28;20439;-90
2022/05/07 04:10:26;;;;;;;9.70;6.63;;;16.20;99.90;;;;;;5035532;28;20237;-91
2022/05/07 04:12:51;;;;;;;8.27;5.90;;;16.20;99.90;;;;;;5053889;28;20210;-91
2022/05/07 04:15:18;;;;;;;11.07;6.20;;;16.20;99.90;;;;;;5035367;28;20540;-90
2022/05/07 04:17:44;;;;;;;6.00;5.40;;;16.20;99.90;;;;;;5035542;28;20300;-92
2022/05/07 04:20:11;;;;;;;5.53;4.90;;;16.20;99.90;;;;;;5053538;28;20502;-91
2022/05/07 04:22:37;;;;;;;9.93;5.47;;;16.20;99.90;;;;;;5035713;28;20230;-92
2022/05/07 04:25:04;;;;;;;9.97;6.00;;;16.20;99.90;;;;;;5052781;28;20426;-91
2022/05/07 04:27:30;;;;;;;9.17;5.80;;;16.20;99.90;;;;;;5023783;28;20469;-91
2022/05/07 04:29:57;;;;;;;8.87;5.47;;;16.20;99.90;;;;;;5014010;28;20500;-89
2022/05/07 04:32:26;;;;;;;7.73;6.00;;;16.20;99.90;;;;;;5017138;28;20203;-92
2022/05/07 04:34:53;;;;;;;7.30;5.70;;;16.20;99.90;;;;;;5013227;28;20671;-92
2022/05/07 04:37:19;;;;;;;7.93;5.80;;;16.30;99.90;;;;;;5013706;28;20453;-92
2022/05/07 04:39:47;;;;;;;7.13;5.90;;;16.20;99.90;;;;;;5015420;28;20465;-92
2022/05/07 04:42:12;;;;;;;7.53;5.97;;;16.30;99.90;;;;;;5026465;28;20452;-92
2022/05/07 04:44:38;;;;;;;8.80;6.43;;;16.20;99.90;;;;;;5015429;28;20442;-90
2022/05/07 04:47:05;;;;;;;6.97;4.87;;;16.30;99.90;;;;;;5012830;28;20444;-91
2022/05/07 04:49:31;;;;;;;5.97;5.37;;;16.30;99.90;;;;;;5011238;28;20179;-91
2022/05/07 04:51:57;;;;;;;5.33;4.70;;;16.30;99.90;;;;;;5012384;28;20437;-91
2022/05/07 04:54:23;;;;;;;6.73;5.37;;;16.30;99.90;;;;;;5012450;28;20412;-90
2022/05/07 04:56:50;;;;;;;6.00;4.57;;;16.40;99.90;;;;;;5011847;28;20203;-91
2022/05/07 04:59:17;;;;;;;11.87;5.20;;;16.40;99.90;;;;;;5012616;28;20460;-90
2022/05/07 05:01:43;;;;;;;8.40;6.03;;;16.40;99.90;;;;;;5027956;28;20464;-91
2022/05/07 05:04:10;;;;;;;7.30;5.00;;;16.40;99.90;;;;;;5028415;28;20420;-91
2022/05/07 05:06:36;;;;;;;8.73;4.90;;;16.50;99.90;;;;;;5014804;28;20478;-91
2022/05/07 05:09:04;;;;;;;7.73;4.63;;;16.50;99.90;;;;;;5013993;28;20416;-91
2022/05/07 05:11:30;;;;;;;6.43;4.53;;;16.60;99.90;;;;;;5027091;28;20482;-91
2022/05/07 05:13:56;;;;;;;7.13;4.77;;;16.60;99.90;;;;;;5059192;28;20435;-90
2022/05/07 05:16:22;;;;;;;6.67;4.20;;;16.60;99.90;;;;;;5050586;28;20427;-91
2022/05/07 05:18:48;;;;;;;6.17;4.13;;;16.60;99.90;;;;;;5047841;28;20491;-90
2022/05/07 05:21:14;;;;;;;8.20;4.70;;;16.60;99.90;;;;;;5048295;28;20431;-92
2022/05/07 05:23:39;;;;;;;6.90;5.40;;;16.70;99.90;;;;;;5048058;28;20269;-92
2022/05/07 05:26:05;;;;;;;6.30;4.37;;;16.70;99.90;;;;;;5037117;28;20631;-91
2022/05/07 05:28:31;;;;;;;7.23;4.53;;;16.70;99.90;;;;;;5035269;28;20202;-91
2022/05/07 05:30:56;;;;;;;10.30;4.73;;;16.70;99.90;;;;;;5052884;28;20199;-91
2022/05/07 05:33:23;;;;;;;4.93;4.43;;;16.80;99.90;;;;;;5035523;28;20210;-91
2022/05/07 05:35:48;;;;;;;5.57;4.17;;;16.80;99.90;;;;;;5034702;28;20737;-90
2022/05/07 05:38:15;;;;;;;4.63;4.13;;;16.90;99.90;;;;;;5033836;28;20541;-92
2022/05/07 05:40:41;;;;;;;5.40;4.90;;;16.90;99.90;;;;;;5036897;28;20426;-91
2022/05/07 05:43:10;;;;;;;6.27;4.90;;;17.00;99.90;;;;;;5056141;28;20529;-92
2022/05/07 05:45:37;;;;;;;6.33;4.80;;;17.00;99.90;;;;;;5039373;28;20780;-90
2022/05/07 05:48:04;;;;;;;6.07;5.10;;;17.00;99.90;;;;;;5038753;28;20454;-92
2022/05/07 05:50:30;;;;;;;5.93;4.80;;;17.00;99.90;;;;;;5037699;28;20427;-91
2022/05/07 05:52:57;;;;;;;9.87;4.40;;;17.00;99.90;;;;;;5084121;27;20859;-91
2022/05/07 05:55:23;;;;;;;8.70;4.33;;;17.10;99.90;;;;;;4996390;28;20476;-91
2022/05/07 05:57:49;;;;;;;6.10;5.10;;;17.10;99.90;;;;;;4997171;28;21033;-92
2022/05/07 06:00:17;;;;;;;7.30;5.47;;;17.10;99.90;;;;;;4997805;28;20186;-91
2022/05/07 06:02:44;;;;;;;8.47;5.10;;;17.10;99.90;;;;;;4999462;28;20733;-91
2022/05/07 06:05:13;;;;;;;7.27;4.27;;;17.20;99.90;;;;;;5001804;28;20461;-90
2022/05/07 06:07:39;;;;;;;5.13;4.63;;;17.20;99.90;;;;;;5009790;28;20463;-91
2022/05/07 06:10:06;;;;;;;6.00;4.23;;;17.20;99.90;;;;;;4997641;28;20413;-92
2022/05/07 06:12:32;;;;;;;5.27;4.20;;;17.20;99.90;;;;;;5013483;28;20450;-91
2022/05/07 06:14:58;;;;;;;7.10;4.80;;;17.30;99.90;;;;;;4995767;28;20405;-92
2022/05/07 06:17:25;;;;;;;8.23;4.93;;;17.30;99.90;;;;;;4995807;28;20502;-91
2022/05/07 06:19:51;;;;;;;5.67;4.40;;;17.30;99.90;;;;;;5011896;28;20554;-90
2022/05/07 06:22:17;;;;;;;8.50;4.60;;;17.30;99.90;;;;;;4996214;28;20449;-91
2022/05/07 06:27:33;;;;;;;6.37;4.57;;;17.40;99.90;;;;;;5036100;27;20597;-91
2022/05/07 06:30:04;;;;;;;6.47;4.60;;;17.50;99.90;;;;;;5016220;28;20422;-91
2022/05/07 06:32:35;;;;;;;5.90;4.70;;;17.50;99.90;;;;;;5023002;28;20987;-91
2022/05/07 06:35:05;;;;;;;7.87;5.07;;;17.50;99.90;;;;;;5023227;28;20437;-91
2022/05/07 06:37:32;;;;;;;9.60;4.50;;;17.50;99.90;;;;;;5018951;28;20487;-92
2022/05/07 06:39:58;;;;;;;8.27;4.40;;;17.60;99.90;;;;;;5016371;28;20823;-92
2022/05/07 06:42:24;;;;;;;4.33;3.93;;;17.60;99.90;;;;;;5034484;28;20455;-90
2022/05/07 06:44:50;;;;;;;6.03;4.27;;;17.70;99.90;;;;;;5018946;28;20416;-90
2022/05/07 06:47:16;;;;;;;6.30;4.37;;;17.70;99.90;;;;;;5020640;28;20499;-92
2022/05/07 06:49:45;;;;;;;6.73;4.63;;;17.70;99.90;;;;;;5016637;28;20436;-91
2022/05/07 06:52:11;;;;;;;7.60;4.30;;;17.80;99.90;;;;;;5034174;28;20485;-91
2022/05/07 06:54:37;;;;;;;7.77;4.43;;;17.80;99.90;;;;;;5016769;28;20433;-92
2022/05/07 06:57:03;;;;;;;5.03;4.50;;;17.90;99.90;;;;;;5017181;28;20447;-91
2022/05/07 06:59:30;;;;;;;7.73;5.97;;;17.90;99.90;;;;;;5034550;28;20585;-91
2022/05/07 07:01:57;;;;;;;6.20;5.40;;;18.00;99.90;;;;;;5017298;28;20512;-92
2022/05/07 07:04:23;;;;;;;5.50;5.00;;;18.00;99.90;;;;;;5016845;28;20936;-90
2022/05/07 07:06:50;;;;;;;7.10;4.90;;;18.00;99.90;;;;;;5019054;28;20449;-92
2022/05/07 07:09:16;;;;;;;6.27;5.60;;;18.00;99.90;;;;;;5018952;28;20421;-90
2022/05/07 07:11:41;;;;;;;5.40;4.90;;;18.00;99.90;;;;;;5084733;28;20479;-91
2022/05/07 07:14:07;;;;;;;5.30;4.77;;;18.10;99.90;;;;;;5102679;28;20511;-90
2022/05/07 07:16:33;;;;;;;7.23;5.00;;;18.10;99.90;;;;;;5099413;28;20553;-92
2022/05/07 07:18:58;;;;;;;4.87;4.47;;;18.10;99.90;;;;;;5099419;28;20290;-90
2022/05/07 07:21:24;;;;;;;6.97;5.40;;;18.10;99.90;;;;;;5099402;28;20278;-92
2022/05/07 07:23:50;;;;;;;7.53;4.70;;;18.10;99.90;;;;;;5117725;28;20172;-90
2022/05/07 07:26:16;;;;;;;5.40;4.60;;;18.10;99.90;;;;;;5099492;28;20415;-92
2022/05/07 07:28:41;;;;;;;5.50;3.60;;;18.20;99.90;;;;;;5117934;28;20215;-91
2022/05/07 07:31:10;;;;;;;8.60;4.57;;;18.20;99.90;;;;;;5121252;28;20172;-91
2022/05/07 07:33:38;;;;;;;5.53;3.93;;;18.30;99.90;;;;;;5102890;28;20207;-91
2022/05/07 07:36:05;;;;;;;6.23;4.70;;;18.30;99.90;;;;;;5100939;28;20818;-90
2022/05/07 07:38:30;;;;;;;8.10;4.10;;;18.40;99.90;;;;;;5099283;28;20468;-91
2022/05/07 07:40:56;;;;;;;6.67;4.40;;;18.40;99.90;;;;;;5117591;28;20404;-91
2022/05/07 07:43:23;;;;;;;14.00;4.30;;;18.50;99.90;;;;;;5100426;28;20231;-92
2022/05/07 07:48:33;;;;;;;5.40;4.27;;;18.70;99.90;;;;;;5121407;28;20476;-91
2022/05/07 07:50:59;;;;;;;8.67;3.97;;;18.80;99.90;;;;;;5116491;28;20511;-89
2022/05/07 07:53:25;;;;;;;3.93;3.37;;;18.80;99.90;;;;;;5098599;28;20203;-92
2022/05/07 07:55:51;;;;;;;4.83;3.97;;;18.90;99.90;;;;;;5099952;28;20661;-90
2022/05/07 07:58:18;;;;;;;5.93;3.90;;;18.90;99.90;;;;;;5099334;28;20555;-91
2022/05/07 08:00:44;;;;;;;5.07;4.40;;;19.00;99.90;;;;;;5116713;28;20401;-91
2022/05/07 08:03:15;;;;;;;4.50;3.97;;;19.00;99.90;;;;;;5117292;28;20454;-92
2022/05/07 08:05:42;;;;;;;5.60;4.20;;;19.10;99.90;;;;;;5118086;28;20474;-91
2022/05/07 08:13:40;;;;;;;4.70;3.43;;;19.10;99.90;;;;;;5127224;27;20487;-91
2022/05/07 08:16:07;;;;;;;3.37;3.07;;;19.10;99.90;;;;;;5138458;27;20394;-91
2022/05/07 08:18:34;;;;;;;4.30;3.57;;;19.10;99.90;;;;;;5131643;27;20818;-91
2022/05/07 08:21:01;;;;;;;5.93;3.67;;;19.20;99.90;;;;;;5025207;27;20446;-93
2022/05/07 08:23:27;;;;;;;5.53;4.87;;;19.20;99.90;;;;;;5120542;27;20782;-92
2022/05/07 08:25:53;;;;;;;5.00;3.60;;;19.30;99.90;;;;;;5111145;27;20411;-91
2022/05/07 08:28:20;;;;;;;7.47;3.80;;;19.30;99.90;;;;;;5031047;28;20717;-93
2022/05/07 08:30:49;;;;;;;5.10;3.50;;;19.40;99.90;;;;;;5030824;28;20406;-93
2022/05/07 08:33:17;;;;;;;4.00;3.57;;;19.40;99.90;;;;;;5014198;28;20523;-91
2022/05/07 08:35:43;;;;;;;3.63;3.30;;;19.60;99.90;;;;;;5014886;28;20421;-92
2022/05/07 08:38:09;;;;;;;4.67;4.23;;;19.70;99.90;;;;;;5016413;28;20854;-92
2022/05/07 08:40:35;;;;;;;5.33;3.80;;;19.80;99.90;;;;;;5033115;28;20463;-93
2022/05/07 08:43:03;;;;;;;4.50;3.33;;;19.80;99.90;;;;;;5016095;28;20292;-90
2022/05/07 08:45:28;;;;;;;5.13;4.03;;;19.90;99.90;;;;;;5014428;28;20177;-92
2022/05/07 08:47:54;;;;;;;4.63;3.77;;;20.00;99.90;;;;;;5031974;28;20789;-93
2022/05/07 08:50:21;;;;;;;6.07;3.90;;;20.10;99.90;;;;;;5031284;28;20197;-89
2022/05/07 08:52:49;;;;;;;5.20;3.40;;;20.20;99.90;;;;;;5032754;28;20237;-92
2022/05/07 08:55:17;;;;;;;5.93;4.23;;;20.20;99.90;;;;;;5016044;28;20422;-92
2022/05/07 08:57:45;;;;;;;4.77;3.63;;;20.30;99.90;;;;;;5027284;28;20467;-92
2022/05/07 09:00:13;;;;;;;4.70;3.50;;;20.30;99.90;;;;;;5027761;28;20474;-91
2022/05/07 09:02:44;;;;;;;4.80;3.23;;;20.40;99.90;;;;;;5017645;28;20817;-93
2022/05/07 09:05:11;;;;;;;3.80;3.00;;;20.50;99.90;;;;;;5032230;28;20419;-92
2022/05/07 09:07:40;;;;;;;5.33;3.93;;;20.50;99.90;;;;;;5014842;28;20462;-93
2022/05/07 09:10:14;;;;;;;5.73;3.20;;;20.60;99.90;;;;;;5015368;28;21045;-91
2022/05/07 09:12:40;;;;;;;4.33;3.10;;;20.70;99.90;;;;;;5015459;28;20477;-91
2022/05/07 09:15:08;;;;;;;3.73;3.00;;;20.70;99.90;;;;;;5015824;28;20415;-92
2022/05/07 09:17:35;;;;;;;4.30;3.10;;;20.80;99.90;;;;;;5015505;28;20297;-92
2022/05/07 09:20:14;;;;;;;6.67;3.50;;;20.80;99.90;;;;;;5032779;28;21004;-91
2022/05/07 09:22:53;;;;;;;6.93;3.97;;;20.90;99.90;;;;;;5018400;28;20539;-91
2022/05/07 09:25:21;;;;;;;4.00;2.77;;;21.00;99.90;;;;;;5016214;28;20770;-92
2022/05/07 09:27:47;;;;;;;4.13;3.13;;;21.00;99.90;;;;;;5032756;28;20463;-91
2022/05/07 09:30:20;;;;;;;3.70;2.60;;;21.10;99.90;;;;;;5032791;28;20924;-92
2022/05/07 09:32:49;;;;;;;6.57;2.93;;;21.10;99.90;;;;;;5015087;28;20491;-92
2022/05/07 09:38:04;;;;;;;6.73;2.87;;;21.20;99.90;;;;;;5033369;28;20504;-93
2022/05/07 09:40:31;;;;;;;4.47;2.73;;;21.20;99.90;;;;;;5037612;28;20432;-91
2022/05/07 09:42:58;;;;;;;3.90;3.07;;;21.30;99.90;;;;;;5029730;28;20458;-92
2022/05/07 09:45:27;;;;;;;6.13;2.90;;;21.40;99.80;;;;;;5125334;28;20451;-90
2022/05/07 09:48:00;;;;;;;4.90;3.47;;;21.50;99.90;;;;;;5137774;28;20450;-91
2022/05/07 09:50:44;;;;;;;4.70;2.83;;;21.50;99.70;;;;;;5115300;28;20406;-92
2022/05/07 09:58:45;;;;;;;3.93;2.97;;;21.80;98.90;;;;;;5133873;28;20470;-92
2022/05/07 10:01:45;;;;;;;4.27;3.00;;;21.80;99.10;;;;;;5114901;28;20407;-93
2022/05/07 10:04:14;;;;;;;3.20;2.63;;;21.90;98.50;;;;;;5118043;28;20419;-92
2022/05/07 10:07:13;;;;;;;3.97;3.50;;;21.90;98.50;;;;;;5118751;28;20455;-92
2022/05/07 10:10:07;;;;;;;5.17;2.97;;;22.00;97.90;;;;;;5119018;28;20419;-93
2022/05/07 10:12:34;;;;;;;4.73;2.90;;;22.00;97.40;;;;;;5135114;28;20446;-92
2022/05/07 10:15:08;;;;;;;5.80;3.33;;;22.00;97.60;;;;;;5136630;28;20395;-93
2022/05/07 10:17:35;;;;;;;3.80;2.87;;;22.00;97.50;;;;;;5119146;28;20997;-92
2022/05/07 10:20:09;;;;;;;3.87;3.00;;;22.00;97.90;;;;;;5137335;28;20459;-92
2022/05/07 10:22:36;;;;;;;5.50;3.30;;;22.10;96.90;;;;;;5119208;28;20469;-92
2022/05/07 10:25:03;;;;;;;3.70;3.20;;;22.10;96.50;;;;;;5136782;27;20414;-93
2022/05/07 10:27:35;;;;;;;3.70;2.80;;;22.20;96.50;;;;;;5047837;28;20974;-91
2022/05/07 10:30:08;;;;;;;3.63;3.10;;;22.30;96.50;;;;;;5020530;28;20407;-92
2022/05/07 10:32:53;;;;;;;3.10;2.80;;;22.40;96.40;;;;;;5025274;28;20812;-93
2022/05/07 10:35:42;;;;;;;3.70;2.93;;;22.40;96.00;;;;;;5019382;28;20431;-92
2022/05/07 10:38:12;;;;;;;6.90;2.53;;;22.50;96.30;;;;;;5026197;28;20452;-92
2022/05/07 10:40:49;;;;;;;5.30;2.77;;;22.60;95.50;;;;;;5044841;28;20415;-92
2022/05/07 10:43:29;;;;;;;3.70;2.70;;;22.70;94.40;;;;;;5016869;28;20812;-92
2022/05/07 10:46:00;;;;;;;2.93;2.60;;;22.80;93.90;;;;;;5020667;28;20448;-92
2022/05/07 10:48:25;;;;;;;3.60;2.80;;;22.80;93.90;;;;;;5017137;28;20978;-92
2022/05/07 10:50:52;;;;;;;8.20;2.80;;;22.90;92.40;;;;;;5034078;28;20400;-90
2022/05/07 10:53:19;;;;;;;4.50;2.40;;;22.90;92.40;;;;;;5016430;28;20656;-93
2022/05/07 10:55:45;;;;;;;3.70;2.60;;;23.00;91.90;;;;;;5034137;28;20408;-93
2022/05/07 10:58:11;;;;;;;2.47;2.27;;;23.00;91.30;;;;;;5034109;28;20792;-92
2022/05/07 11:00:37;;;;;;;3.80;2.70;;;23.00;91.30;;;;;;5016435;28;20209;-92
2022/05/07 11:03:03;;;;;;;2.93;2.40;;;23.00;91.60;;;;;;5017277;28;20207;-93
2022/05/07 11:05:35;;;;;;;2.90;2.27;;;23.00;90.00;;;;;;5033781;28;20454;-92
2022/05/07 11:08:02;;;;;;;3.73;3.40;;;23.00;90.00;;;;;;5016730;28;20825;-92
2022/05/07 11:10:30;;;;;;;2.57;2.37;;;23.00;88.50;;;;;;5016529;28;20472;-92
2022/05/07 11:13:11;;;;;;;3.30;3.00;;;22.90;88.80;;;;;;5016594;28;20482;-92
2022/05/07 11:15:37;;;;;;;3.17;2.87;;;22.90;88.30;;;;;;5017309;28;20507;-92
2022/05/07 11:18:13;;;;;;;3.93;3.07;;;22.90;88.70;;;;;;5018567;28;20551;-91
2022/05/07 11:20:41;;;;;;;5.83;3.07;;;22.90;89.90;;;;;;5019765;28;20175;-92
2022/05/07 11:23:11;;;;;;;3.77;2.50;;;22.90;87.80;;;;;;5019551;28;20498;-91
2022/05/07 11:25:36;;;;;;;3.30;2.93;;;22.90;87.20;;;;;;5016925;28;20803;-92
2022/05/07 11:28:02;;;;;;;3.37;2.83;;;22.90;86.30;;;;;;5035709;28;20444;-92
2022/05/07 11:30:28;;;;;;;13.20;3.33;;;22.90;87.40;;;;;;5035998;28;20187;-91
2022/05/07 11:32:55;;;;;;;3.73;3.23;;;22.90;85.30;;;;;;5036062;28;20439;-93
2022/05/07 11:35:25;;;;;;;3.90;3.00;;;22.90;85.20;;;;;;5054646;28;20545;-92
2022/05/07 11:37:51;;;;;;;4.53;3.03;;;22.90;85.90;;;;;;5036643;28;20507;-92
2022/05/07 11:40:27;;;;;;;4.30;2.80;;;22.90;85.30;;;;;;5037666;28;20475;-91
2022/05/07 11:45:25;;;;;;;4.20;3.17;;;22.90;85.90;;;;;;5055597;28;20692;-91
2022/05/07 11:45:45;;;;;;;3.60;3.17;;;22.90;84.90;;;;;;5050450;28;20404;-91
2022/05/07 11:48:14;;;;;;;3.17;2.87;;;22.90;84.80;;;;;;5019956;28;20456;-92
2022/05/07 11:50:59;;;;;;;4.83;3.43;;;22.90;83.10;;;;;;5017466;28;20446;-92
2022/05/07 11:53:36;;;;;;;2.97;2.63;;;22.90;84.00;;;;;;5013911;28;20991;-92
2022/05/07 11:56:09;;;;;;;3.70;3.00;;;22.80;84.20;;;;;;5014077;28;20467;-93
2022/05/07 11:58:40;;;;;;;4.20;3.00;;;22.80;83.70;;;;;;5032870;28;20502;-92
2022/05/07 12:01:19;;;;;;;3.70;2.67;;;22.80;83.80;;;;;;5015878;28;20778;-93
2022/05/07 12:03:45;;;;;;;4.97;2.87;;;22.80;84.40;;;;;;5014672;28;20427;-94
2022/05/07 12:06:14;;;;;;;3.17;2.87;;;22.80;84.60;;;;;;5014118;28;20424;-91
2022/05/07 12:08:40;;;;;;;3.40;2.87;;;22.80;82.50;;;;;;5034626;28;20455;-93
2022/05/07 12:11:06;;;;;;;6.40;3.60;;;22.80;81.30;;;;;;5032525;28;20455;-92
2022/05/07 12:13:32;;;;;;;4.67;2.97;;;22.80;82.00;;;;;;5017008;28;20459;-93
2022/05/07 12:18:48;;;;;;;2.90;2.53;;;22.80;82.30;;;;;;5040273;28;20237;-94
2022/05/07 12:21:15;;;;;;;2.90;2.57;;;22.80;81.70;;;;;;5018648;28;20409;-93
2022/05/07 12:31:53;;;;;;;4.27;3.97;;;22.90;83.30;;;;;;5032857;28;20967;-94
2022/05/07 12:34:22;;;;;;;4.17;3.40;;;22.90;82.50;;;;;;5016089;28;20422;-92
2022/05/07 12:36:48;;;;;;;3.03;2.47;;;22.90;81.50;;;;;;5015968;28;20194;-94
2022/05/07 12:39:14;;;;;;;3.70;3.00;;;23.00;82.20;;;;;;5016526;28;20502;-93
2022/05/07 12:41:42;;;;;;;5.13;3.13;;;23.00;81.40;;;;;;5017542;28;20195;-92
2022/05/07 12:44:08;;;;;;;5.73;3.50;;;22.90;82.00;;;;;;5034190;28;20422;-92
2022/05/07 12:46:34;;;;;;;3.87;2.87;;;22.90;81.80;;;;;;5017696;28;20519;-93
2022/05/07 12:49:00;;;;;;;5.20;3.50;;;22.90;81.90;;;;;;5016474;28;20194;-93
2022/05/07 12:51:27;;;;;;;6.90;2.80;;;22.90;82.50;;;;;;5126692;27;20900;-92
2022/05/07 12:53:53;;;;;;;3.63;3.33;;;22.90;81.50;;;;;;5022820;28;20192;-94
2022/05/07 12:56:25;;;;;;;3.40;3.10;;;23.00;82.80;;;;;;5032104;28;20770;-93
2022/05/07 12:58:50;;;;;;;4.33;3.00;;;23.10;83.40;;;;;;5030940;28;20553;-93
2022/05/07 13:01:16;;;;;;;4.00;3.40;;;23.10;81.90;;;;;;5014849;28;20440;-93
2022/05/07 13:03:43;;;;;;;3.60;2.70;;;23.10;82.10;;;;;;5014846;28;20208;-94
2022/05/07 13:06:08;;;;;;;3.37;3.07;;;23.10;81.60;;;;;;5033367;28;20398;-94
2022/05/07 13:08:34;;;;;;;12.00;8.93;;;23.20;81.60;;;;;;5015454;28;20444;-92
2022/05/07 13:11:00;;;;;;;8.43;5.27;;;23.20;82.70;;;;;;5035285;28;20219;-93
2022/05/07 13:13:26;;;;;;;5.43;4.80;;;23.20;83.30;;;;;;5014820;28;20206;-93
2022/05/07 13:15:52;;;;;;;4.67;4.07;;;23.20;83.90;;;;;;5032266;28;20408;-91
2022/05/07 13:18:18;;;;;;;3.53;3.23;;;23.30;83.30;;;;;;5032877;28;20251;-91
2022/05/07 13:20:44;;;;;;;4.50;2.80;;;23.30;83.30;;;;;;5014923;28;20710;-91
2022/05/07 13:23:12;;;;;;;3.43;2.90;;;23.30;82.60;;;;;;5015419;28;20544;-92
2022/05/07 13:25:38;;;;;;;6.13;4.80;;;23.40;84.50;;;;;;5031903;28;20520;-93